createdAt,value
2023-04-12T00:01:58.986Z,100098.53
2023-04-12T00:04:29.039Z,100092.50
2023-04-12T00:06:56.037Z,100085.72
2023-04-12T00:09:22.622Z,100079.72
2023-04-12T00:11:49.223Z,100061.72
2023-04-12T00:14:15.829Z,100062.09
2023-04-12T00:16:43.340Z,100044.91
2023-04-12T00:19:10.751Z,100056.09
2023-04-12T00:21:37.171Z,100054.50
2023-04-12T00:24:03.693Z,100057.69
2023-04-12T00:26:30.114Z,100060.84
2023-04-12T00:28:56.724Z,100045.25
2023-04-12T00:31:23.347Z,100041.66
2023-04-12T00:33:49.819Z,100033.25
2023-04-12T00:36:17.118Z,100030.88
2023-04-12T00:38:45.924Z,100024.09
2023-04-12T00:41:13.426Z,100032.09
2023-04-12T00:43:41.851Z,100021.72
2023-04-12T00:46:08.654Z,100016.53
2023-04-12T00:48:37.755Z,100005.78
2023-04-12T00:51:07.345Z,100012.16
2023-04-12T00:53:34.119Z,100002.19
2023-04-12T00:56:01.948Z,100004.97
2023-04-12T00:58:28.369Z,100001.81
2023-04-12T01:00:55.027Z,100005.41
2023-04-12T01:03:27.697Z,100001.00
2023-04-12T01:06:29.894Z,99990.19
2023-04-12T01:09:27.522Z,99988.19
2023-04-12T01:12:00.036Z,99989.81
2023-04-12T01:14:45.052Z,99986.63
2023-04-12T01:17:17.774Z,99980.63
2023-04-12T01:20:09.840Z,99981.81
2023-04-12T01:22:40.115Z,99971.03
2023-04-12T01:25:12.605Z,99956.25
2023-04-12T01:27:42.402Z,99951.88
2023-04-12T01:30:13.150Z,99958.25
2023-04-12T01:32:43.962Z,99954.69
2023-04-12T01:35:11.576Z,99946.69
2023-04-12T01:37:38.276Z,99937.47
2023-04-12T01:40:05.974Z,99946.25
2023-04-12T01:42:32.769Z,99935.06
2023-04-12T01:44:59.252Z,99927.06
2023-04-12T01:47:25.807Z,99923.81
2023-04-12T01:50:15.649Z,99925.41
2023-04-12T01:52:49.478Z,99913.44
2023-04-12T01:55:17.308Z,99918.22
2023-04-12T01:57:45.697Z,99904.63
2023-04-12T02:00:14.049Z,99901.03
2023-04-12T02:02:41.085Z,99899.03
2023-04-12T02:05:09.232Z,99899.44
2023-04-12T02:07:36.017Z,99895.44
2023-04-12T02:10:02.410Z,99879.44
2023-04-12T02:12:29.074Z,99879.44
2023-04-12T02:14:57.106Z,99865.84
2023-04-12T02:17:23.793Z,99866.66
2023-04-12T02:19:50.351Z,99848.28
2023-04-12T02:22:17.394Z,99839.88
2023-04-12T02:24:44.001Z,99849.44
2023-04-12T02:27:11.712Z,99843.03
2023-04-12T02:29:38.064Z,99849.84
2023-04-12T02:32:04.700Z,99831.84
2023-04-12T02:34:34.511Z,99825.81
2023-04-12T02:37:00.929Z,99817.81
2023-04-12T02:39:29.209Z,99813.44
2023-04-12T02:41:57.134Z,99807.03
2023-04-12T02:44:23.581Z,99791.41
2023-04-12T02:46:50.206Z,99784.63
2023-04-12T02:49:16.532Z,99786.63
2023-04-12T02:51:43.535Z,99781.41
2023-04-12T02:54:09.906Z,99777.41
2023-04-12T02:56:37.181Z,99776.97
2023-04-12T02:59:03.618Z,99767.78
2023-04-12T03:01:31.153Z,99767.38
2023-04-12T03:03:57.820Z,99762.19
2023-04-12T03:06:24.951Z,99762.97
2023-04-12T03:08:51.347Z,99752.16
2023-04-12T03:11:17.727Z,99741.78
2023-04-12T03:13:44.134Z,99732.16
2023-04-12T03:16:23.648Z,99729.34
2023-04-12T03:18:51.171Z,99721.78
2023-04-12T03:21:18.104Z,99714.16
2023-04-12T03:23:44.627Z,99712.13
2023-04-12T03:26:11.122Z,99707.31
2023-04-12T03:28:37.771Z,99709.31
2023-04-12T03:31:04.984Z,99694.91
2023-04-12T03:33:31.675Z,99686.53
2023-04-12T03:35:58.354Z,99676.53
2023-04-12T03:38:24.801Z,99666.56
2023-04-12T03:40:51.218Z,99650.59
2023-04-12T03:43:17.795Z,99650.97
2023-04-12T03:45:44.398Z,99645.75
2023-04-12T03:48:12.228Z,99634.19
2023-04-12T03:50:44.212Z,99625.00
2023-04-12T03:53:11.723Z,99629.00
2023-04-12T03:55:38.099Z,99623.78
2023-04-12T03:58:05.133Z,99620.56
2023-04-12T04:00:32.725Z,99612.19
2023-04-12T04:03:03.838Z,99609.75
2023-04-12T04:05:31.409Z,99598.19
2023-04-12T04:08:00.786Z,99594.59
2023-04-12T04:10:28.334Z,99583.41
2023-04-12T04:12:55.135Z,99576.63
2023-04-12T04:15:21.514Z,99579.03
2023-04-12T04:17:49.099Z,99588.19
2023-04-12T04:20:16.202Z,99563.81
2023-04-12T04:22:42.647Z,99565.81
2023-04-12T04:25:09.645Z,99553.44
2023-04-12T04:27:38.334Z,99543.44
2023-04-12T04:30:06.130Z,99538.25
2023-04-12T04:32:35.603Z,99546.22
2023-04-12T04:35:02.355Z,99548.22
2023-04-12T04:37:30.527Z,99539.41
2023-04-12T04:39:57.229Z,99531.84
2023-04-12T04:42:24.485Z,99521.84
2023-04-12T04:45:02.567Z,99521.44
2023-04-12T04:47:31.716Z,99515.88
2023-04-12T04:50:00.486Z,99510.69
2023-04-12T04:52:27.123Z,99508.28
2023-04-12T04:54:57.507Z,99507.47
2023-04-12T04:57:26.856Z,99505.88
2023-04-12T04:59:53.351Z,99499.91
2023-04-12T05:02:19.762Z,99501.53
2023-04-12T05:04:46.493Z,99497.13
2023-04-12T05:07:14.155Z,99496.31
2023-04-12T05:09:41.004Z,99487.94
2023-04-12T05:12:07.678Z,99480.34
2023-04-12T05:14:46.811Z,99472.78
2023-04-12T05:17:14.485Z,99477.97
2023-04-12T05:19:43.723Z,99471.19
2023-04-12T05:22:10.612Z,99468.00
2023-04-12T05:24:37.287Z,99456.38
2023-04-12T05:27:04.128Z,99452.78
2023-04-12T05:29:30.541Z,99456.78
2023-04-12T05:31:57.042Z,99449.59
2023-04-12T05:34:23.669Z,99442.38
2023-04-12T05:36:50.054Z,99432.41
2023-04-12T05:39:18.239Z,99435.22
2023-04-12T05:41:45.998Z,99426.03
2023-04-12T05:44:12.620Z,99434.41
2023-04-12T05:46:39.129Z,99428.03
2023-04-12T05:49:06.178Z,99432.81
2023-04-12T05:51:40.841Z,99433.22
2023-04-12T05:54:08.206Z,99428.03
2023-04-12T05:56:34.702Z,99416.84
2023-04-12T05:59:05.313Z,99416.81
2023-04-12T06:01:34.559Z,99411.25
2023-04-12T06:04:05.735Z,99409.22
2023-04-12T06:06:32.464Z,99409.22
2023-04-12T06:09:02.695Z,99413.19
2023-04-12T06:11:29.233Z,99408.00
2023-04-12T06:13:56.100Z,99397.22
2023-04-12T06:16:22.492Z,99396.03
2023-04-12T06:18:48.897Z,99392.84
2023-04-12T06:21:16.419Z,99392.00
2023-04-12T06:23:42.731Z,99380.44
2023-04-12T06:26:09.657Z,99385.25
2023-04-12T06:28:36.338Z,99382.84
2023-04-12T06:31:05.194Z,99386.41
2023-04-12T06:33:31.569Z,99376.44
2023-04-12T06:35:58.288Z,99383.22
2023-04-12T06:38:24.679Z,99360.88
2023-04-12T06:40:51.052Z,99358.09
2023-04-12T06:43:22.647Z,99344.50
2023-04-12T06:45:51.898Z,99346.50
2023-04-12T06:48:19.058Z,99342.50
2023-04-12T06:50:45.793Z,99336.91
2023-04-12T06:53:13.823Z,99322.94
2023-04-12T06:55:40.710Z,99321.78
2023-04-12T06:58:07.110Z,99322.94
2023-04-12T07:00:33.605Z,99318.16
2023-04-12T07:03:00.000Z,99315.38
2023-04-12T07:05:26.953Z,99314.19
2023-04-12T07:07:53.528Z,99304.63
2023-04-12T07:10:19.935Z,99302.63
2023-04-12T07:12:46.657Z,99286.66
2023-04-12T07:15:13.038Z,99290.25
2023-04-12T07:17:39.478Z,99290.66
2023-04-12T07:20:06.129Z,99279.88
2023-04-12T07:22:33.085Z,99268.72
2023-04-12T07:24:59.772Z,99275.88
2023-04-12T07:27:26.437Z,99274.31
2023-04-12T07:29:53.307Z,99269.09
2023-04-12T07:32:20.313Z,99264.31
2023-04-12T07:34:48.234Z,99254.72
2023-04-12T07:37:14.823Z,99249.16
2023-04-12T07:39:41.357Z,99247.16
2023-04-12T07:42:07.819Z,99237.19
2023-04-12T07:44:36.371Z,99243.19
2023-04-12T07:47:04.588Z,99239.97
2023-04-12T07:49:30.920Z,99236.44
2023-04-12T07:51:57.446Z,99226.47
2023-04-12T07:54:28.020Z,99223.66
2023-04-12T07:57:02.691Z,99229.22
2023-04-12T07:59:30.487Z,99212.47
2023-04-12T08:01:57.195Z,99213.69
2023-04-12T08:04:24.487Z,99210.88
2023-04-12T08:06:51.897Z,99210.50
2023-04-12T08:09:18.390Z,99208.50
2023-04-12T08:11:44.790Z,99202.09
2023-04-12T08:14:11.201Z,99200.88
2023-04-12T08:16:37.566Z,99193.28
2023-04-12T08:19:04.230Z,99195.69
2023-04-12T08:21:30.965Z,99186.88
2023-04-12T08:23:57.814Z,99182.09
2023-04-12T08:26:24.947Z,99182.47
2023-04-12T08:28:51.599Z,99175.66
2023-04-12T08:31:18.618Z,99179.66
2023-04-12T08:33:47.383Z,99174.03
2023-04-12T08:36:14.097Z,99176.84
2023-04-12T08:38:45.609Z,99178.44
2023-04-12T08:41:14.016Z,99183.63
2023-04-12T08:43:44.221Z,99196.00
2023-04-12T08:46:15.586Z,99200.00
2023-04-12T08:48:47.427Z,99192.00
2023-04-12T08:51:16.352Z,99185.19
2023-04-12T08:53:43.077Z,99187.97
2023-04-12T08:56:13.889Z,99180.38
2023-04-12T08:58:42.753Z,99173.19
2023-04-12T09:01:15.452Z,99171.97
2023-04-12T09:03:43.689Z,99165.59
2023-04-12T09:06:11.212Z,99161.59
2023-04-12T09:08:37.883Z,99156.38
2023-04-12T09:11:24.736Z,99142.81
2023-04-12T09:13:51.310Z,99152.75
2023-04-12T09:16:20.287Z,99145.53
2023-04-12T09:18:51.466Z,99145.91
2023-04-12T09:21:18.296Z,99147.94
2023-04-12T09:23:44.699Z,99140.31
2023-04-12T09:26:27.489Z,99136.69
2023-04-12T09:28:54.048Z,99120.66
2023-04-12T09:31:20.787Z,99123.00
2023-04-12T09:33:47.554Z,99118.56
2023-04-12T09:36:14.717Z,99127.38
2023-04-12T09:38:43.063Z,99128.16
2023-04-12T09:41:22.531Z,99128.94
2023-04-12T09:43:51.761Z,99126.50
2023-04-12T09:46:18.470Z,99128.88
2023-04-12T09:48:52.665Z,99125.28
2023-04-12T09:51:32.612Z,99134.50
2023-04-12T09:54:06.864Z,99134.91
2023-04-12T09:56:35.705Z,99124.06
2023-04-12T09:59:07.046Z,99116.88
2023-04-12T10:01:39.925Z,99120.06
2023-04-12T10:04:08.425Z,99116.44
2023-04-12T10:06:36.935Z,99123.19
2023-04-12T10:09:04.780Z,99115.56
2023-04-12T10:11:32.305Z,99112.31
2023-04-12T10:13:59.676Z,99106.28
2023-04-12T10:16:27.435Z,99112.25
2023-04-12T10:18:55.942Z,99118.22
2023-04-12T10:21:23.067Z,99109.38
2023-04-12T10:23:50.974Z,99112.88
2023-04-12T10:26:17.983Z,99107.66
2023-04-12T10:28:47.698Z,99101.16
2023-04-12T10:31:30.672Z,99103.53
2023-04-12T10:33:57.602Z,99091.06
2023-04-12T10:36:56.371Z,99092.63
2023-04-12T10:39:37.992Z,99092.97
2023-04-12T10:42:26.034Z,99086.47
2023-04-12T10:44:55.056Z,99091.16
2023-04-12T10:47:49.600Z,99076.72
2023-04-12T10:50:29.962Z,99075.00
2023-04-12T10:53:18.208Z,99078.88
2023-04-12T10:55:45.699Z,99073.06
2023-04-12T10:58:50.208Z,99076.56
2023-04-12T11:01:19.686Z,99074.78
2023-04-12T11:04:22.261Z,99070.31
2023-04-12T11:07:04.682Z,99071.34
2023-04-12T11:09:34.009Z,99071.66
2023-04-12T11:12:03.563Z,99070.03
2023-04-12T11:14:35.478Z,99075.22
2023-04-12T11:17:08.336Z,99071.19
2023-04-12T11:19:38.287Z,99072.81
2023-04-12T11:22:06.222Z,99067.19
2023-04-12T11:24:37.796Z,99073.59
2023-04-12T11:27:04.448Z,99063.16
2023-04-12T11:29:32.671Z,99063.16
2023-04-12T11:31:59.199Z,99070.34
2023-04-12T11:34:26.142Z,99070.78
2023-04-12T11:36:53.557Z,99072.81
2023-04-12T11:39:20.470Z,99080.84
2023-04-12T11:41:48.209Z,99083.66
2023-04-12T11:44:18.890Z,99084.09
2023-04-12T11:46:45.905Z,99082.06
2023-04-12T11:49:17.263Z,99088.53
2023-04-12T11:51:44.993Z,99078.94
2023-04-12T11:54:12.490Z,99088.22
2023-04-12T11:56:39.566Z,99089.44
2023-04-12T11:59:06.845Z,99081.97
2023-04-12T12:01:37.668Z,99083.69
2023-04-12T12:04:05.569Z,99085.38
2023-04-12T12:06:32.846Z,99085.81
2023-04-12T12:08:59.755Z,99085.50
2023-04-12T12:11:27.373Z,99087.94
2023-04-12T12:13:55.216Z,99090.34
2023-04-12T12:16:27.881Z,99091.22
2023-04-12T12:18:56.033Z,99081.22
2023-04-12T12:21:22.722Z,99088.44
2023-04-12T12:23:50.178Z,99093.25
2023-04-12T12:26:24.880Z,99090.47
2023-04-12T12:28:55.045Z,99097.63
2023-04-12T12:31:28.478Z,99102.78
2023-04-12T12:33:59.598Z,99093.91
2023-04-12T12:36:36.479Z,99093.06
2023-04-12T12:39:12.027Z,99094.63
2023-04-12T12:41:39.445Z,99092.56
2023-04-12T12:44:07.085Z,99094.16
2023-04-12T12:49:05.279Z,99101.34
2023-04-12T12:51:32.327Z,99092.97
2023-04-12T12:53:59.012Z,99101.47
2023-04-12T12:56:25.494Z,99089.91
2023-04-12T12:58:52.104Z,99102.41
2023-04-12T13:01:19.520Z,99097.66
2023-04-12T13:03:46.169Z,99097.31
2023-04-12T13:06:12.770Z,99095.34
2023-04-12T13:08:39.181Z,99096.56
2023-04-12T13:11:09.116Z,99085.78
2023-04-12T13:13:38.941Z,99086.13
2023-04-12T13:16:05.954Z,99086.53
2023-04-12T13:18:32.376Z,99073.66
2023-04-12T13:20:58.769Z,99078.00
2023-04-12T13:23:25.458Z,99072.34
2023-04-12T13:25:56.016Z,99082.75
2023-04-12T13:28:22.573Z,99072.31
2023-04-12T13:30:50.670Z,99073.47
2023-04-12T13:33:21.008Z,99065.06
2023-04-12T13:35:48.617Z,99071.06
2023-04-12T13:38:14.983Z,99068.63
2023-04-12T13:40:41.473Z,99057.38
2023-04-12T13:43:08.617Z,99058.56
2023-04-12T13:45:35.901Z,99060.94
2023-04-12T13:48:02.509Z,99048.88
2023-04-12T13:50:29.189Z,99041.25
2023-04-12T13:52:55.815Z,99047.59
2023-04-12T13:55:22.443Z,99058.41
2023-04-12T13:57:48.821Z,99052.75
2023-04-12T14:00:15.738Z,99051.91
2023-04-12T14:02:42.204Z,99051.44
2023-04-12T14:05:09.129Z,99055.78
2023-04-12T14:07:38.564Z,99052.13
2023-04-12T14:10:05.474Z,99060.09
2023-04-12T14:12:32.040Z,99061.66
2023-04-12T14:14:58.668Z,99071.63
2023-04-12T14:17:25.180Z,99070.34
2023-04-12T14:19:51.651Z,99070.31
2023-04-12T14:22:18.067Z,99071.84
2023-04-12T14:24:44.759Z,99066.13
2023-04-12T14:27:12.713Z,99067.66
2023-04-12T14:29:39.765Z,99076.06
2023-04-12T14:32:06.221Z,99068.81
2023-04-12T14:34:32.879Z,99067.94
2023-04-12T14:37:00.304Z,99067.09
2023-04-12T14:39:27.935Z,99065.41
2023-04-12T14:41:54.500Z,99058.16
2023-04-12T14:44:21.943Z,99060.13
2023-04-12T14:46:50.465Z,99058.47
2023-04-12T14:49:17.184Z,99061.22
2023-04-12T14:51:43.798Z,99046.28
2023-04-12T14:54:10.348Z,99048.25
2023-04-12T14:56:44.599Z,99047.41
2023-04-12T14:59:18.129Z,99048.13
2023-04-12T15:01:44.811Z,99055.69
2023-04-12T15:04:11.844Z,99089.41
2023-04-12T15:06:51.367Z,99090.66
2023-04-12T15:09:17.933Z,99100.06
2023-04-12T15:11:46.466Z,99117.63
2023-04-12T15:14:20.756Z,99126.34
2023-04-12T15:16:49.257Z,99140.66
2023-04-12T15:19:20.829Z,99142.16
2023-04-12T15:21:50.891Z,99148.38
2023-04-12T15:24:18.835Z,99159.41
2023-04-12T15:26:48.256Z,99185.69
2023-04-12T15:29:16.498Z,99169.88
2023-04-12T15:31:43.166Z,99177.25
2023-04-12T15:34:10.802Z,99174.59
2023-04-12T15:36:40.714Z,99181.53
2023-04-12T15:39:07.399Z,99183.66
2023-04-12T15:41:37.273Z,99174.19
2023-04-12T15:44:09.399Z,99178.28
2023-04-12T15:46:36.422Z,99190.28
2023-04-12T15:49:03.010Z,99192.31
2023-04-12T15:51:29.878Z,99192.31
2023-04-12T15:53:56.844Z,99194.31
2023-04-12T15:56:26.602Z,99191.94
2023-04-12T15:58:57.624Z,99205.53
2023-04-12T16:01:25.103Z,99201.53
2023-04-12T16:03:52.351Z,99205.16
2023-04-12T16:06:20.973Z,99207.94
2023-04-12T16:08:48.494Z,99217.16
2023-04-12T16:11:17.069Z,99218.75
2023-04-12T16:13:45.379Z,99220.75
2023-04-12T16:16:13.604Z,99217.56
2023-04-12T16:18:42.197Z,99218.38
2023-04-12T16:21:09.165Z,99213.56
2023-04-12T16:23:39.206Z,99220.38
2023-04-12T16:26:05.792Z,99219.19
2023-04-12T16:28:33.224Z,99227.97
2023-04-12T16:30:59.621Z,99232.41
2023-04-12T16:33:27.184Z,99220.00
2023-04-12T16:35:53.872Z,99218.81
2023-04-12T16:38:20.250Z,99218.00
2023-04-12T16:40:47.832Z,99224.00
2023-04-12T16:43:14.269Z,99215.63
2023-04-12T16:45:45.446Z,99215.19
2023-04-12T16:48:16.734Z,99217.59
2023-04-12T16:50:46.314Z,99220.38
2023-04-12T16:53:13.895Z,99229.97
2023-04-12T16:55:47.034Z,99233.19
2023-04-12T16:58:14.515Z,99231.56
2023-04-12T17:00:43.084Z,99247.97
2023-04-12T17:03:11.390Z,99253.94
2023-04-12T17:05:40.679Z,99257.94
2023-04-12T17:08:09.669Z,99266.34
2023-04-12T17:10:37.347Z,99271.53
2023-04-12T17:13:04.791Z,99273.53
2023-04-12T17:15:31.442Z,99279.91
2023-04-12T17:18:10.267Z,99282.72
2023-04-12T17:20:37.729Z,99269.53
2023-04-12T17:23:05.322Z,99268.72
2023-04-12T17:25:32.170Z,99264.34
2023-04-12T17:28:03.366Z,99263.16
2023-04-12T17:30:30.115Z,99265.13
2023-04-12T17:32:57.794Z,99281.13
2023-04-12T17:35:24.316Z,99276.72
2023-04-12T17:37:50.912Z,99292.72
2023-04-12T17:40:17.317Z,99291.13
2023-04-12T17:42:44.363Z,99279.94
2023-04-12T17:45:12.750Z,99266.38
2023-04-12T17:47:39.939Z,99261.56
2023-04-12T17:50:08.228Z,99269.97
2023-04-12T17:52:34.670Z,99261.97
2023-04-12T17:55:01.433Z,99257.59
2023-04-12T17:57:28.060Z,99265.97
2023-04-12T17:59:54.413Z,99246.81
2023-04-12T18:02:21.603Z,99256.78
2023-04-12T18:04:48.549Z,99262.38
2023-04-12T18:07:16.710Z,99273.56
2023-04-12T18:09:45.818Z,99270.75
2023-04-12T18:12:13.089Z,99260.38
2023-04-12T18:14:41.008Z,99261.97
2023-04-12T18:17:08.133Z,99271.16
2023-04-12T18:19:34.735Z,99271.97
2023-04-12T18:22:01.268Z,99261.16
2023-04-12T18:24:28.962Z,99257.19
2023-04-12T18:26:56.388Z,99261.19
2023-04-12T18:29:23.049Z,99256.78
2023-04-12T18:31:49.735Z,99257.59
2023-04-12T18:34:19.005Z,99270.34
2023-04-12T18:36:45.697Z,99274.75
2023-04-12T18:39:12.332Z,99276.75
2023-04-12T18:41:40.829Z,99275.13
2023-04-12T18:44:11.927Z,99283.09
2023-04-12T18:46:39.286Z,99281.88
2023-04-12T18:49:05.998Z,99285.06
2023-04-12T18:51:33.369Z,99285.47
2023-04-12T18:54:02.331Z,99281.84
2023-04-12T18:56:28.880Z,99282.66
2023-04-12T18:58:56.661Z,99293.81
2023-04-12T19:01:24.402Z,99295.78
2023-04-12T19:03:51.469Z,99295.38
2023-04-12T19:06:18.603Z,99306.53
2023-04-12T19:08:45.124Z,99308.50
2023-04-12T19:11:11.635Z,99309.28
2023-04-12T19:13:38.566Z,99302.91
2023-04-12T19:16:08.540Z,99317.25
2023-04-12T19:18:35.442Z,99310.44
2023-04-12T19:21:02.844Z,99315.22
2023-04-12T19:23:30.331Z,99312.03
2023-04-12T19:25:59.698Z,99318.38
2023-04-12T19:28:27.271Z,99315.97
2023-04-12T19:30:56.612Z,99312.75
2023-04-12T19:33:24.828Z,99309.97
2023-04-12T19:35:56.182Z,99311.97
2023-04-12T19:38:23.212Z,99306.78
2023-04-12T19:40:51.979Z,99306.00
2023-04-12T19:43:19.412Z,99311.56
2023-04-12T19:45:45.982Z,99301.97
2023-04-12T19:48:13.252Z,99305.16
2023-04-12T19:50:39.795Z,99307.16
2023-04-12T19:53:06.291Z,99298.78
2023-04-12T19:55:32.678Z,99299.16
2023-04-12T19:57:59.404Z,99295.59
2023-04-12T20:00:27.153Z,99293.16
2023-04-12T20:02:54.411Z,99287.97
2023-04-12T20:05:23.402Z,99290.38
2023-04-12T20:07:49.962Z,99287.56
2023-04-12T20:10:17.788Z,99290.75
2023-04-12T20:12:45.709Z,99297.50
2023-04-12T20:15:12.530Z,99292.31
2023-04-12T20:17:43.927Z,99282.34
2023-04-12T20:20:12.958Z,99277.19
2023-04-12T20:22:45.687Z,99279.13
2023-04-12T20:25:13.031Z,99287.13
2023-04-12T20:27:39.516Z,99293.50
2023-04-12T20:30:10.313Z,99289.94
2023-04-12T20:32:37.377Z,99285.94
2023-04-12T20:35:04.712Z,99274.00
2023-04-12T20:37:31.114Z,99279.97
2023-04-12T20:39:59.400Z,99280.75
2023-04-12T20:42:26.429Z,99275.19
2023-04-12T20:44:53.372Z,99281.97
2023-04-12T20:47:20.171Z,99277.19
2023-04-12T20:49:46.526Z,99280.78
2023-04-12T20:52:16.993Z,99278.00
2023-04-12T20:54:45.700Z,99282.38
2023-04-12T20:57:13.115Z,99277.59
2023-04-12T20:59:39.662Z,99276.44
2023-04-12T21:02:06.165Z,99281.22
2023-04-12T21:04:36.025Z,99268.84
2023-04-12T21:07:03.211Z,99271.66
2023-04-12T21:09:30.000Z,99260.06
2023-04-12T21:11:58.139Z,99269.63
2023-04-12T21:14:24.747Z,99264.44
2023-04-12T21:16:51.244Z,99263.22
2023-04-12T21:19:18.432Z,99267.22
2023-04-12T21:21:46.144Z,99254.03
2023-04-12T21:24:13.100Z,99254.88
2023-04-12T21:26:40.237Z,99256.81
2023-04-12T21:29:06.930Z,99263.22
2023-04-12T21:31:33.548Z,99260.00
2023-04-12T21:34:00.223Z,99264.00
2023-04-12T21:36:30.543Z,99260.41
2023-04-12T21:39:00.436Z,99258.03
2023-04-12T21:41:27.549Z,99268.34
2023-04-12T21:43:54.286Z,99254.81
2023-04-12T21:46:21.441Z,99259.19
2023-04-12T21:48:47.952Z,99260.38
2023-04-12T21:51:14.556Z,99263.97
2023-04-12T21:53:41.102Z,99266.38
2023-04-12T21:56:07.943Z,99255.22
2023-04-12T21:58:34.680Z,99255.22
2023-04-12T22:01:01.680Z,99262.78
2023-04-12T22:03:28.462Z,99267.94
2023-04-12T22:06:04.418Z,99273.50
2023-04-12T22:08:32.683Z,99267.13
2023-04-12T22:11:00.130Z,99279.47
2023-04-12T22:13:26.973Z,99272.28
2023-04-12T22:15:53.319Z,99281.84
2023-04-12T22:18:19.898Z,99277.03
2023-04-12T22:20:46.285Z,99275.81
2023-04-12T22:23:13.790Z,99278.59
2023-04-12T22:25:40.404Z,99276.97
2023-04-12T22:28:07.614Z,99278.13
2023-04-12T22:30:35.187Z,99281.66
2023-04-12T22:33:01.881Z,99278.88
2023-04-12T22:35:30.041Z,99287.19
2023-04-12T22:37:56.938Z,99280.00
2023-04-12T22:40:23.331Z,99273.97
2023-04-12T22:42:49.708Z,99283.50
2023-04-12T22:45:17.535Z,99265.16
2023-04-12T22:47:45.382Z,99254.38
2023-04-12T22:50:12.911Z,99253.13
2023-04-12T22:52:40.358Z,99246.38
2023-04-12T22:55:08.681Z,99243.94
2023-04-12T22:57:36.189Z,99239.16
2023-04-12T23:00:05.692Z,99241.94
2023-04-12T23:02:33.713Z,99233.97
2023-04-12T23:05:00.908Z,99233.59
2023-04-12T23:07:30.179Z,99228.38
2023-04-12T23:09:57.770Z,99224.81
2023-04-12T23:12:24.758Z,99221.22
2023-04-12T23:14:55.308Z,99216.03
2023-04-12T23:17:21.761Z,99217.25
2023-04-12T23:19:51.299Z,99202.88
2023-04-12T23:22:44.544Z,99197.31
2023-04-12T23:25:39.784Z,99193.72
2023-04-12T23:28:14.200Z,99195.31
2023-04-12T23:30:51.532Z,99195.31
2023-04-12T23:33:21.059Z,99182.97
2023-04-12T23:35:58.810Z,99184.53
2023-04-12T23:38:32.132Z,99183.75
2023-04-12T23:41:04.147Z,99178.97
2023-04-12T23:43:32.520Z,99180.56
2023-04-12T23:45:59.428Z,99169.81
2023-04-12T23:48:26.151Z,99178.53
2023-04-12T23:50:52.747Z,99165.00
2023-04-12T23:53:19.920Z,99168.19
2023-04-12T23:55:48.020Z,99160.59
2023-04-12T23:58:14.899Z,99161.38
